Time;durP1;ratioP1;P1;durP2;ratioP2;P2;SDS_P1;SDS_P2;PMS_P1;PMS_P2;Temp;Humidity;BMP_temperature;BMP_pressure;BME280_temperature;BME280_humidity;BME280_pressure;Samples;Min_cycle;Max_cycle;Signal;HPM_P1;HPM_P2
2023/06/18 00:00:20;;;;;;;;;;;24.60;51.00;;;;;;10334631;28;88513;-63
2023/06/18 00:05:22;;;;;;;;;;;24.60;51.00;;;;;;10333797;28;88991;-63
2023/06/18 00:10:24;;;;;;;;;;;24.60;52.00;;;;;;10334408;28;89253;-63
2023/06/18 00:15:26;;;;;;;;;;;24.60;51.00;;;;;;10333456;28;89627;-62
2023/06/18 00:20:27;;;;;;;;;;;24.60;51.00;;;;;;10333853;28;89132;-63
2023/06/18 00:25:29;;;;;;;;;;;24.60;51.00;;;;;;10334350;28;88934;-62
2023/06/18 00:30:32;;;;;;;;;;;24.60;51.10;;;;;;10334381;28;90157;-62
2023/06/18 00:35:34;;;;;;;;;;;24.60;51.00;;;;;;10331611;28;90113;-63
2023/06/18 00:40:36;;;;;;;;;;;24.60;51.00;;;;;;10331080;28;89411;-62
2023/06/18 00:45:37;;;;;;;;;;;24.60;51.10;;;;;;10332550;28;90000;-63
2023/06/18 00:50:40;;;;;;;;;;;24.60;51.00;;;;;;10333206;28;90130;-62
2023/06/18 00:55:42;;;;;;;;;;;24.60;51.00;;;;;;10333737;28;89021;-63
2023/06/18 01:00:44;;;;;;;;;;;24.60;51.00;;;;;;10333181;28;89110;-61
2023/06/18 01:05:47;;;;;;;;;;;24.60;51.00;;;;;;10330559;28;89018;-62
2023/06/18 01:11:03;;;;;;;;;;;24.60;51.00;;;;;;10331972;28;89715;-62
2023/06/18 01:16:05;;;;;;;;;;;24.60;50.90;;;;;;10333128;28;87977;-66
2023/06/18 01:21:09;;;;;;;;;;;24.60;51.00;;;;;;10331304;28;90060;-66
2023/06/18 01:26:12;;;;;;;;;;;24.60;51.00;;;;;;10332505;28;90078;-65
2023/06/18 01:31:13;;;;;;;;;;;24.60;51.00;;;;;;10331702;28;89924;-65
2023/06/18 01:36:15;;;;;;;;;;;24.60;51.00;;;;;;10330399;28;90459;-65
2023/06/18 01:41:20;;;;;;;;;;;24.60;50.90;;;;;;10332483;28;88450;-66
2023/06/18 01:46:23;;;;;;;;;;;24.60;50.90;;;;;;10339494;28;89422;-64
2023/06/18 01:51:27;;;;;;;;;;;24.60;50.90;;;;;;10338797;28;90136;-66
2023/06/18 01:56:28;;;;;;;;;;;24.60;50.90;;;;;;10338945;28;90147;-62
2023/06/18 02:01:31;;;;;;;;;;;24.60;51.00;;;;;;10338771;28;89886;-66
2023/06/18 02:06:33;;;;;;;;;;;24.60;51.00;;;;;;10339621;28;87848;-67
2023/06/18 02:11:34;;;;;;;;;;;24.60;51.00;;;;;;10338502;28;89299;-67
2023/06/18 02:16:36;;;;;;;;;;;24.60;51.00;;;;;;10338008;28;90058;-66
2023/06/18 02:21:38;;;;;;;;;;;24.60;51.10;;;;;;10337622;28;90142;-63
2023/06/18 02:26:40;;;;;;;;;;;24.60;51.00;;;;;;10337721;28;89239;-63
2023/06/18 02:31:41;;;;;;;;;;;24.50;51.10;;;;;;10337648;28;89589;-63
2023/06/18 02:36:44;;;;;;;;;;;24.50;51.10;;;;;;10337408;28;90110;-63
2023/06/18 02:41:46;;;;;;;;;;;24.50;51.10;;;;;;10336108;28;89518;-64
2023/06/18 02:46:47;;;;;;;;;;;24.50;51.10;;;;;;10337933;28;88931;-64
2023/06/18 02:51:49;;;;;;;;;;;24.50;51.20;;;;;;10336562;28;89003;-63
2023/06/18 02:56:51;;;;;;;;;;;24.50;51.20;;;;;;10337720;28;88331;-63
2023/06/18 03:01:53;;;;;;;;;;;24.50;51.20;;;;;;10337336;28;89401;-63
2023/06/18 03:06:57;;;;;;;;;;;24.50;51.20;;;;;;10336830;28;90349;-64
2023/06/18 03:11:59;;;;;;;;;;;24.50;51.20;;;;;;10336053;28;90389;-63
2023/06/18 03:17:01;;;;;;;;;;;24.50;51.20;;;;;;10336155;28;89117;-63
2023/06/18 03:22:03;;;;;;;;;;;24.50;51.20;;;;;;10335851;28;89283;-64
2023/06/18 03:27:06;;;;;;;;;;;24.50;51.30;;;;;;10336079;28;89118;-64
2023/06/18 03:32:08;;;;;;;;;;;24.50;51.20;;;;;;10336456;28;89114;-63
2023/06/18 03:37:11;;;;;;;;;;;24.50;51.30;;;;;;10336157;28;89235;-66
2023/06/18 03:42:14;;;;;;;;;;;24.50;51.30;;;;;;10335978;28;89237;-66
2023/06/18 04:18:04;;;;;;;;;;;24.50;51.20;;;;;;10283908;28;88829;-62
2023/06/18 04:23:06;;;;;;;;;;;24.50;51.10;;;;;;10334743;28;89954;-66
2023/06/18 04:28:08;;;;;;;;;;;24.50;51.20;;;;;;10334238;28;89148;-66
2023/06/18 04:33:09;;;;;;;;;;;24.50;51.20;;;;;;10332545;28;89820;-63
2023/06/18 04:38:11;;;;;;;;;;;24.50;51.20;;;;;;10333878;28;90380;-62
2023/06/18 04:43:13;;;;;;;;;;;24.50;51.20;;;;;;10332960;28;87729;-62
2023/06/18 04:48:14;;;;;;;;;;;24.50;51.20;;;;;;10745530;22;90698;-63
2023/06/18 04:53:16;;;;;;;;;;;24.50;51.20;;;;;;10248590;28;89170;-64
2023/06/18 04:58:20;;;;;;;;;;;24.50;51.30;;;;;;10247570;28;90034;-64
2023/06/18 05:03:23;;;;;;;;;;;24.50;51.40;;;;;;10268820;28;90060;-64
2023/06/18 05:08:25;;;;;;;;;;;24.50;51.40;;;;;;10286922;28;90152;-64
2023/06/18 05:13:27;;;;;;;;;;;24.50;51.30;;;;;;10231039;28;90683;-64
2023/06/18 05:18:28;;;;;;;;;;;24.50;51.40;;;;;;10252204;28;90184;-64
2023/06/18 05:23:30;;;;;;;;;;;24.50;51.40;;;;;;10271660;28;90319;-64
2023/06/18 05:28:32;;;;;;;;;;;24.50;51.40;;;;;;10292338;28;89254;-64
2023/06/18 05:33:33;;;;;;;;;;;24.50;51.50;;;;;;10293278;28;89394;-63
2023/06/18 05:38:35;;;;;;;;;;;24.50;51.50;;;;;;10292437;28;89441;-63
2023/06/18 05:43:37;;;;;;;;;;;24.50;51.50;;;;;;10292630;28;89045;-64
2023/06/18 05:48:39;;;;;;;;;;;24.50;51.60;;;;;;10268648;28;91045;-64
2023/06/18 05:53:40;;;;;;;;;;;24.50;51.70;;;;;;10256275;28;88637;-63
2023/06/18 05:58:42;;;;;;;;;;;24.50;51.70;;;;;;10254627;28;89191;-64
2023/06/18 06:03:44;;;;;;;;;;;24.60;51.80;;;;;;10256507;28;90142;-64
2023/06/18 06:08:46;;;;;;;;;;;24.60;51.80;;;;;;10256555;28;90164;-64
2023/06/18 06:13:48;;;;;;;;;;;24.60;51.90;;;;;;10255445;28;89581;-63
2023/06/18 06:18:50;;;;;;;;;;;24.60;51.90;;;;;;10256180;28;89985;-64
2023/06/18 06:23:52;;;;;;;;;;;24.60;51.90;;;;;;10255991;28;87789;-64
2023/06/18 06:28:54;;;;;;;;;;;24.60;51.90;;;;;;10255664;28;89929;-64
2023/06/18 06:33:56;;;;;;;;;;;24.70;52.20;;;;;;10256651;28;88642;-63
2023/06/18 06:38:57;;;;;;;;;;;24.70;52.20;;;;;;10253026;28;90795;-64
2023/06/18 06:43:59;;;;;;;;;;;24.80;52.30;;;;;;10256261;28;89774;-63
2023/06/18 06:49:03;;;;;;;;;;;24.80;52.30;;;;;;10255360;28;88822;-64
2023/06/18 06:54:05;;;;;;;;;;;24.80;52.30;;;;;;10255473;28;89251;-64
2023/06/18 06:59:08;;;;;;;;;;;24.90;52.30;;;;;;10254929;28;89359;-64
2023/06/18 07:04:10;;;;;;;;;;;24.90;52.20;;;;;;10253536;28;89044;-64
2023/06/18 07:09:12;;;;;;;;;;;25.00;52.10;;;;;;10252775;28;89043;-64
2023/06/18 07:14:15;;;;;;;;;;;25.00;52.00;;;;;;10270930;28;89464;-64
2023/06/18 07:19:16;;;;;;;;;;;25.00;52.00;;;;;;10254795;28;89214;-63
2023/06/18 07:24:18;;;;;;;;;;;25.10;52.10;;;;;;10256056;28;90275;-62
2023/06/18 07:29:20;;;;;;;;;;;25.10;53.50;;;;;;10255002;28;89729;-63
2023/06/18 07:34:22;;;;;;;;;;;25.20;53.70;;;;;;10253638;28;89629;-63
2023/06/18 07:39:25;;;;;;;;;;;25.20;54.20;;;;;;10253252;28;90138;-64
2023/06/18 07:44:27;;;;;;;;;;;25.10;54.20;;;;;;10252858;28;90074;-63
2023/06/18 07:49:29;;;;;;;;;;;25.10;54.10;;;;;;10253149;28;89485;-63
2023/06/18 07:54:34;;;;;;;;;;;25.10;54.50;;;;;;10253493;28;90343;-62
2023/06/18 07:59:36;;;;;;;;;;;25.10;54.30;;;;;;10253634;28;90200;-63
2023/06/18 08:04:37;;;;;;;;;;;25.10;54.30;;;;;;10253647;28;89301;-63
2023/06/18 08:09:40;;;;;;;;;;;25.10;54.30;;;;;;10253409;28;88858;-62
2023/06/18 08:14:44;;;;;;;;;;;25.10;54.20;;;;;;10253228;28;89270;-63
2023/06/18 08:19:47;;;;;;;;;;;25.10;54.20;;;;;;10251902;28;90543;-63
2023/06/18 08:24:49;;;;;;;;;;;25.10;54.20;;;;;;10251552;28;88514;-63
2023/06/18 08:29:51;;;;;;;;;;;25.10;54.10;;;;;;10251558;28;88820;-63
2023/06/18 08:34:53;;;;;;;;;;;25.10;54.10;;;;;;10252424;28;90103;-62
2023/06/18 08:39:54;;;;;;;;;;;25.00;54.10;;;;;;10251773;28;89283;-63
2023/06/18 08:44:56;;;;;;;;;;;25.10;54.10;;;;;;10251674;28;89272;-62
2023/06/18 08:49:59;;;;;;;;;;;25.00;54.10;;;;;;10250295;28;88966;-62
2023/06/18 08:55:02;;;;;;;;;;;25.00;54.10;;;;;;10252064;28;88319;-62
2023/06/18 09:00:04;;;;;;;;;;;25.00;54.10;;;;;;10251785;28;89257;-62
2023/06/18 09:05:07;;;;;;;;;;;25.00;54.10;;;;;;10251668;28;89193;-62
2023/06/18 09:10:12;;;;;;;;;;;25.00;54.10;;;;;;10249969;28;91000;-62
2023/06/18 09:15:16;;;;;;;;;;;25.00;54.00;;;;;;10250888;28;109581;-61
2023/06/18 09:20:18;;;;;;;;;;;25.00;54.00;;;;;;10250591;28;89017;-62
2023/06/18 09:25:21;;;;;;;;;;;25.00;53.90;;;;;;10250837;28;88974;-62
2023/06/18 09:30:23;;;;;;;;;;;25.00;53.90;;;;;;10249937;28;89072;-62
2023/06/18 09:35:26;;;;;;;;;;;25.10;53.80;;;;;;10250709;28;88783;-62
2023/06/18 09:40:27;;;;;;;;;;;25.10;53.80;;;;;;10250152;28;89600;-62
2023/06/18 09:45:29;;;;;;;;;;;25.10;53.70;;;;;;10251079;28;88432;-62
2023/06/18 09:50:31;;;;;;;;;;;25.10;53.60;;;;;;10248251;28;89688;-61
2023/06/18 09:55:34;;;;;;;;;;;25.20;53.60;;;;;;10250456;28;89757;-62
2023/06/18 10:00:36;;;;;;;;;;;25.20;53.40;;;;;;10249172;28;90050;-62
2023/06/18 10:05:38;;;;;;;;;;;25.20;52.90;;;;;;10254973;28;89141;-62
2023/06/18 10:10:40;;;;;;;;;;;25.20;52.70;;;;;;10256961;28;90068;-62
2023/06/18 10:15:43;;;;;;;;;;;25.20;52.10;;;;;;10256357;28;88163;-62
2023/06/18 10:20:45;;;;;;;;;;;25.30;51.80;;;;;;10256354;28;88160;-62
2023/06/18 10:25:47;;;;;;;;;;;25.30;51.20;;;;;;10255393;28;89338;-62
2023/06/18 10:30:50;;;;;;;;;;;25.30;50.40;;;;;;10256894;28;89581;-62
2023/06/18 10:35:52;;;;;;;;;;;25.30;49.40;;;;;;10257708;28;89493;-62
2023/06/18 10:41:10;;;;;;;;;;;25.30;49.00;;;;;;10256317;28;89281;-62
2023/06/18 10:46:13;;;;;;;;;;;25.40;48.40;;;;;;10255798;28;89258;-63
2023/06/18 10:51:16;;;;;;;;;;;25.40;49.00;;;;;;10254357;28;90953;-62
2023/06/18 10:56:18;;;;;;;;;;;25.40;50.10;;;;;;10254943;28;89190;-62
2023/06/18 11:01:24;;;;;;;;;;;25.60;50.00;;;;;;10255427;28;89063;-62
2023/06/18 11:06:29;;;;;;;;;;;25.60;49.10;;;;;;10254561;28;89877;-62
2023/06/18 11:11:32;;;;;;;;;;;25.70;49.20;;;;;;10255053;28;90184;-62
2023/06/18 11:16:34;;;;;;;;;;;25.70;48.50;;;;;;10254328;28;90183;-62
2023/06/18 11:21:42;;;;;;;;;;;25.70;48.10;;;;;;10253549;28;89168;-62
2023/06/18 11:26:43;;;;;;;;;;;25.70;48.10;;;;;;10253496;28;89338;-63
2023/06/18 11:31:48;;;;;;;;;;;25.70;47.90;;;;;;10269214;28;89248;-62
2023/06/18 11:36:50;;;;;;;;;;;25.70;47.70;;;;;;10254009;28;89991;-63
2023/06/18 11:41:53;;;;;;;;;;;25.70;47.50;;;;;;10252821;28;90827;-62
2023/06/18 11:46:58;;;;;;;;;;;25.70;46.80;;;;;;10253532;28;91900;-63
2023/06/18 11:52:00;;;;;;;;;;;25.70;46.10;;;;;;10253587;28;90167;-63
2023/06/18 11:57:02;;;;;;;;;;;25.70;46.00;;;;;;10252258;28;90636;-63
2023/06/18 12:02:11;;;;;;;;;;;25.70;45.80;;;;;;10252672;28;89255;-60
2023/06/18 12:07:17;;;;;;;;;;;25.70;46.00;;;;;;10252490;28;89943;-61
2023/06/18 12:12:21;;;;;;;;;;;25.70;45.70;;;;;;10251217;28;89183;-61
2023/06/18 12:17:46;;;;;;;;;;;25.70;45.50;;;;;;10253528;28;89293;-61
2023/06/18 12:22:48;;;;;;;;;;;25.60;45.10;;;;;;10252132;28;89056;-61
2023/06/18 12:27:50;;;;;;;;;;;25.60;45.20;;;;;;10251672;28;90237;-62
2023/06/18 12:33:00;;;;;;;;;;;25.60;46.30;;;;;;10249525;28;89852;-63
2023/06/18 12:38:06;;;;;;;;;;;25.60;46.50;;;;;;10251559;28;89532;-63
2023/06/18 12:43:09;;;;;;;;;;;25.60;46.60;;;;;;10250919;28;88909;-63
2023/06/18 12:48:13;;;;;;;;;;;25.60;46.60;;;;;;10250827;28;89150;-63
2023/06/18 12:53:16;;;;;;;;;;;25.60;46.70;;;;;;10250548;28;89060;-63
2023/06/18 12:58:21;;;;;;;;;;;25.60;46.40;;;;;;10250838;28;89304;-63
2023/06/18 13:03:24;;;;;;;;;;;25.60;46.20;;;;;;10249791;28;90228;-63
2023/06/18 13:08:26;;;;;;;;;;;25.60;45.80;;;;;;10252345;28;88359;-63
2023/06/18 13:13:28;;;;;;;;;;;25.60;45.90;;;;;;10251617;28;88877;-63
2023/06/18 13:18:30;;;;;;;;;;;25.60;47.20;;;;;;10250347;28;89055;-64
2023/06/18 13:23:32;;;;;;;;;;;25.60;47.30;;;;;;10249598;28;89769;-62
2023/06/18 13:28:34;;;;;;;;;;;25.60;47.20;;;;;;10250326;28;88630;-64
2023/06/18 13:33:36;;;;;;;;;;;25.60;47.20;;;;;;10249881;28;88339;-61
2023/06/18 13:38:39;;;;;;;;;;;25.60;47.10;;;;;;10254642;28;90077;-63
2023/06/18 13:43:41;;;;;;;;;;;25.60;46.60;;;;;;10258214;28;90458;-63
2023/06/18 13:48:43;;;;;;;;;;;25.60;46.40;;;;;;10256471;28;90450;-64
2023/06/18 13:53:45;;;;;;;;;;;25.60;46.30;;;;;;10256347;28;89290;-63
2023/06/18 13:58:47;;;;;;;;;;;25.60;46.70;;;;;;10258493;28;89169;-63
2023/06/18 14:03:50;;;;;;;;;;;25.60;46.60;;;;;;10255620;28;90303;-64
2023/06/18 14:08:52;;;;;;;;;;;25.60;46.70;;;;;;10257345;28;89149;-63
2023/06/18 14:13:54;;;;;;;;;;;25.60;46.80;;;;;;10253815;28;89983;-63
2023/06/18 14:18:56;;;;;;;;;;;25.50;47.00;;;;;;10256341;28;88787;-63
2023/06/18 14:24:01;;;;;;;;;;;25.50;47.30;;;;;;10255974;28;88439;-63
2023/06/18 14:29:03;;;;;;;;;;;25.50;47.40;;;;;;10255971;28;88560;-63
2023/06/18 14:34:05;;;;;;;;;;;25.50;47.40;;;;;;10255619;28;90056;-63
2023/06/18 14:39:10;;;;;;;;;;;25.40;47.30;;;;;;10254971;28;90113;-63
2023/06/18 14:44:12;;;;;;;;;;;25.40;47.30;;;;;;10254158;28;90420;-63
2023/06/18 14:49:15;;;;;;;;;;;25.40;47.70;;;;;;10255773;28;88259;-63
2023/06/18 14:54:17;;;;;;;;;;;25.40;47.80;;;;;;10253880;28;89376;-63
2023/06/18 14:59:19;;;;;;;;;;;25.40;47.70;;;;;;10254217;28;89116;-63
2023/06/18 15:04:21;;;;;;;;;;;25.40;47.70;;;;;;10253260;28;89874;-63
2023/06/18 15:09:23;;;;;;;;;;;25.40;47.80;;;;;;10255341;28;88452;-63
2023/06/18 15:14:25;;;;;;;;;;;25.40;47.80;;;;;;10254415;28;89175;-63
2023/06/18 15:19:27;;;;;;;;;;;25.40;48.00;;;;;;10254470;28;90015;-63
2023/06/18 15:24:29;;;;;;;;;;;25.40;47.90;;;;;;10254688;28;89989;-63
2023/06/18 15:29:31;;;;;;;;;;;25.40;47.90;;;;;;10252953;28;89076;-63
2023/06/18 15:34:33;;;;;;;;;;;25.40;48.40;;;;;;10254296;28;89314;-64
2023/06/18 15:39:35;;;;;;;;;;;25.50;48.70;;;;;;10255533;28;87861;-62
2023/06/18 15:44:37;;;;;;;;;;;25.50;49.10;;;;;;10254245;28;90245;-64
2023/06/18 15:49:39;;;;;;;;;;;25.50;49.30;;;;;;10258336;28;89245;-64
2023/06/18 15:54:41;;;;;;;;;;;25.50;49.50;;;;;;10253375;28;90977;-66
2023/06/18 15:59:43;;;;;;;;;;;25.60;51.00;;;;;;10252375;28;88134;-65
2023/06/18 16:04:51;;;;;;;;;;;25.70;52.20;;;;;;10253883;28;88899;-66
2023/06/18 16:09:53;;;;;;;;;;;25.80;53.90;;;;;;10252809;28;88882;-65
2023/06/18 16:14:55;;;;;;;;;;;25.90;53.50;;;;;;10253345;28;89656;-65
2023/06/18 16:19:56;;;;;;;;;;;25.90;54.10;;;;;;10252217;28;89023;-65
2023/06/18 16:24:58;;;;;;;;;;;25.90;53.20;;;;;;10252531;28;89412;-66
2023/06/18 16:30:00;;;;;;;;;;;26.00;53.50;;;;;;10268884;28;89423;-65
2023/06/18 16:35:02;;;;;;;;;;;26.00;53.80;;;;;;10252457;28;89889;-65
2023/06/18 16:40:04;;;;;;;;;;;26.00;53.80;;;;;;10252333;28;90382;-66
2023/06/18 16:45:06;;;;;;;;;;;26.00;53.20;;;;;;10251165;28;89923;-65
2023/06/18 16:50:07;;;;;;;;;;;25.90;52.30;;;;;;10251709;28;89131;-66
2023/06/18 16:55:09;;;;;;;;;;;25.90;52.40;;;;;;10252048;28;89756;-65
2023/06/18 17:00:11;;;;;;;;;;;25.90;52.50;;;;;;10253454;28;90220;-66
2023/06/18 17:05:13;;;;;;;;;;;25.80;52.50;;;;;;10252951;28;89345;-65
2023/06/18 17:10:15;;;;;;;;;;;25.80;52.60;;;;;;10251829;28;90070;-66
2023/06/18 17:15:17;;;;;;;;;;;25.80;52.50;;;;;;10250335;28;88358;-66
2023/06/18 17:20:19;;;;;;;;;;;25.80;52.70;;;;;;10252295;28;88429;-66
2023/06/18 17:25:21;;;;;;;;;;;25.70;52.70;;;;;;10251403;28;90119;-65
2023/06/18 17:30:23;;;;;;;;;;;25.70;52.80;;;;;;10251871;28;89560;-65
2023/06/18 17:35:25;;;;;;;;;;;25.70;52.90;;;;;;10248291;28;90781;-65
2023/06/18 17:40:27;;;;;;;;;;;25.70;52.90;;;;;;10249857;28;89032;-65
2023/06/18 17:45:29;;;;;;;;;;;25.60;52.70;;;;;;10250226;28;89179;-65
2023/06/18 17:50:31;;;;;;;;;;;25.60;52.40;;;;;;10249712;28;90089;-65
2023/06/18 17:55:33;;;;;;;;;;;25.60;52.30;;;;;;10250039;28;90126;-65
2023/06/18 18:00:35;;;;;;;;;;;25.60;52.20;;;;;;10250095;28;89293;-65
2023/06/18 18:05:37;;;;;;;;;;;25.60;52.10;;;;;;10249507;28;89785;-64
2023/06/18 18:10:39;;;;;;;;;;;25.50;52.00;;;;;;10251169;28;88484;-65
2023/06/18 18:15:40;;;;;;;;;;;25.50;52.00;;;;;;10263921;28;89036;-65
2023/06/18 18:20:42;;;;;;;;;;;25.50;51.90;;;;;;10249393;28;89119;-65
2023/06/18 18:25:44;;;;;;;;;;;25.50;51.90;;;;;;10252135;28;89205;-66
2023/06/18 18:30:46;;;;;;;;;;;25.50;51.90;;;;;;10255881;28;89278;-66
2023/06/18 18:35:48;;;;;;;;;;;25.50;51.90;;;;;;10255665;28;90129;-65
2023/06/18 18:40:50;;;;;;;;;;;25.50;52.00;;;;;;10253994;28;89038;-66
2023/06/18 18:45:52;;;;;;;;;;;25.50;52.00;;;;;;10255106;28;89255;-66
2023/06/18 18:50:56;;;;;;;;;;;25.50;51.50;;;;;;10254292;28;88173;-65
2023/06/18 18:55:57;;;;;;;;;;;25.50;51.40;;;;;;10254603;28;89101;-65
2023/06/18 19:00:59;;;;;;;;;;;25.40;51.30;;;;;;10255802;28;88916;-65
2023/06/18 19:06:01;;;;;;;;;;;25.40;51.20;;;;;;10255326;28;90153;-65
2023/06/18 19:11:03;;;;;;;;;;;25.40;51.60;;;;;;10254013;28;89078;-65
2023/06/18 19:16:04;;;;;;;;;;;25.50;51.40;;;;;;10254384;28;89889;-65
2023/06/18 19:21:07;;;;;;;;;;;25.40;51.40;;;;;;10254662;28;90034;-64
2023/06/18 19:26:09;;;;;;;;;;;25.40;51.40;;;;;;10253207;28;89066;-64
2023/06/18 19:31:10;;;;;;;;;;;25.40;51.40;;;;;;10254022;28;89155;-65
2023/06/18 19:36:12;;;;;;;;;;;25.40;51.40;;;;;;10253815;28;88160;-65
2023/06/18 19:41:14;;;;;;;;;;;25.40;51.30;;;;;;10253437;28;89929;-64
2023/06/18 19:46:16;;;;;;;;;;;25.40;51.30;;;;;;10254065;28;89756;-65
2023/06/18 19:51:18;;;;;;;;;;;25.40;51.30;;;;;;10252891;28;88292;-65
2023/06/18 19:56:20;;;;;;;;;;;25.40;51.20;;;;;;10252679;28;90294;-64
2023/06/18 20:01:22;;;;;;;;;;;25.40;51.10;;;;;;10252613;28;89157;-65
2023/06/18 20:06:24;;;;;;;;;;;25.40;51.10;;;;;;10250181;28;89799;-66
2023/06/18 20:11:25;;;;;;;;;;;25.40;51.00;;;;;;10252269;28;89757;-65
2023/06/18 20:16:27;;;;;;;;;;;25.40;50.80;;;;;;10250203;28;89087;-64
2023/06/18 20:21:29;;;;;;;;;;;25.40;50.90;;;;;;10252677;28;89180;-64
2023/06/18 20:26:31;;;;;;;;;;;25.40;50.80;;;;;;10250679;28;89788;-65
2023/06/18 20:31:33;;;;;;;;;;;25.40;50.80;;;;;;10251510;28;88301;-65
2023/06/18 20:36:35;;;;;;;;;;;25.40;51.90;;;;;;10252546;28;90489;-65
2023/06/18 20:41:37;;;;;;;;;;;25.40;51.20;;;;;;10267236;28;89365;-65
2023/06/18 20:46:39;;;;;;;;;;;25.40;51.30;;;;;;10250162;28;90170;-65
2023/06/18 20:51:41;;;;;;;;;;;25.40;51.30;;;;;;10250477;28;89333;-65
2023/06/18 20:56:42;;;;;;;;;;;25.40;51.40;;;;;;10250832;28;90793;-65
2023/06/18 21:01:45;;;;;;;;;;;25.40;51.50;;;;;;10250082;28;88450;-64
2023/06/18 21:06:46;;;;;;;;;;;25.40;51.70;;;;;;10250603;28;90209;-65
2023/06/18 21:11:48;;;;;;;;;;;25.40;51.70;;;;;;10250720;28;90069;-65
2023/06/18 21:16:50;;;;;;;;;;;25.40;51.80;;;;;;10250663;28;90061;-65
2023/06/18 21:21:52;;;;;;;;;;;25.30;51.80;;;;;;10250878;28;88136;-65
2023/06/18 21:26:54;;;;;;;;;;;25.30;51.80;;;;;;10250822;28;88299;-64
2023/06/18 21:31:57;;;;;;;;;;;25.30;51.90;;;;;;10251944;28;89586;-65
2023/06/18 21:36:59;;;;;;;;;;;25.30;51.90;;;;;;10250593;28;90186;-65
2023/06/18 21:42:02;;;;;;;;;;;25.30;51.90;;;;;;10266177;28;89728;-65
2023/06/18 21:47:03;;;;;;;;;;;25.30;51.90;;;;;;10248400;28;90947;-65
2023/06/18 21:52:05;;;;;;;;;;;25.30;51.90;;;;;;10249411;28;90084;-65
2023/06/18 21:57:07;;;;;;;;;;;25.30;51.90;;;;;;10250133;28;89069;-65
2023/06/18 22:02:09;;;;;;;;;;;25.30;51.90;;;;;;10256869;28;88921;-65
2023/06/18 22:07:11;;;;;;;;;;;25.30;51.80;;;;;;10254815;28;89238;-64
2023/06/18 22:12:13;;;;;;;;;;;25.30;51.80;;;;;;10256658;28;89259;-65
2023/06/18 22:17:15;;;;;;;;;;;25.30;51.80;;;;;;10256960;28;90594;-65
2023/06/18 22:22:17;;;;;;;;;;;25.30;51.80;;;;;;10257098;28;88169;-65
2023/06/18 22:27:19;;;;;;;;;;;25.30;51.80;;;;;;10254423;28;90226;-66
2023/06/18 22:32:21;;;;;;;;;;;25.30;51.90;;;;;;10254528;28;90130;-66
2023/06/18 22:37:23;;;;;;;;;;;25.30;51.80;;;;;;10255022;28;90389;-65
2023/06/18 22:42:25;;;;;;;;;;;25.30;51.80;;;;;;10255386;28;90089;-65
2023/06/18 22:47:27;;;;;;;;;;;25.30;51.80;;;;;;10254504;28;89189;-66
2023/06/18 22:52:29;;;;;;;;;;;25.30;51.80;;;;;;10255197;28;89065;-66
2023/06/18 22:57:32;;;;;;;;;;;25.30;51.80;;;;;;10255623;28;89210;-65
2023/06/18 23:02:37;;;;;;;;;;;25.30;51.80;;;;;;10255036;28;89081;-65
2023/06/18 23:07:39;;;;;;;;;;;25.30;51.80;;;;;;10254537;28;89284;-66
2023/06/18 23:12:41;;;;;;;;;;;25.20;51.80;;;;;;10255502;28;89472;-66
2023/06/18 23:17:43;;;;;;;;;;;25.20;51.80;;;;;;10254154;28;89060;-66
2023/06/18 23:22:48;;;;;;;;;;;25.20;51.80;;;;;;10255237;28;90002;-64
2023/06/18 23:27:50;;;;;;;;;;;25.20;51.80;;;;;;10253624;28;90536;-65
2023/06/18 23:32:52;;;;;;;;;;;25.20;51.80;;;;;;10254564;28;89309;-65
2023/06/18 23:37:54;;;;;;;;;;;25.20;51.80;;;;;;10253544;28;90298;-64
2023/06/18 23:42:57;;;;;;;;;;;25.20;51.80;;;;;;10254144;28;89161;-65
2023/06/18 23:47:59;;;;;;;;;;;25.10;51.70;;;;;;10252142;28;89699;-65
2023/06/18 23:53:01;;;;;;;;;;;25.20;51.90;;;;;;10253526;28;90049;-65
2023/06/18 23:58:03;;;;;;;;;;;25.10;51.80;;;;;;10254709;28;90211;-65
